Time;durP1;ratioP1;P1;durP2;ratioP2;P2;SDS_P1;SDS_P2;PMS_P1;PMS_P2;Temp;Humidity;BMP_temperature;BMP_pressure;BME280_temperature;BME280_humidity;BME280_pressure;Samples;Min_cycle;Max_cycle;Signal;HPM_P1;HPM_P2
2021/12/22 00:01:31;;;;;;;7.20;2.95;;;;;;;;;;5073740;28;20059;-81
2021/12/22 00:03:58;;;;;;;2.90;2.65;;;;;;;;;;5082345;28;20043;-80
2021/12/22 00:06:26;;;;;;;3.08;2.47;;;;;;;;;;5082136;28;20068;-80
2021/12/22 00:08:52;;;;;;;3.13;2.85;;;;;;;;;;5073800;28;20089;-80
2021/12/22 00:11:20;;;;;;;8.32;2.80;;;;;;;;;;5079937;28;20028;-80
2021/12/22 00:13:46;;;;;;;7.97;2.85;;;;;;;;;;5080509;28;20039;-79
2021/12/22 00:16:12;;;;;;;2.42;2.30;;;;;;;;;;5077462;28;20029;-81
2021/12/22 00:18:38;;;;;;;2.65;2.38;;;;;;;;;;5078258;28;20177;-77
2021/12/22 00:21:05;;;;;;;3.47;2.78;;;;;;;;;;5083846;28;20035;-78
2021/12/22 00:23:31;;;;;;;3.10;1.85;;;;;;;;;;5076567;28;20090;-79
2021/12/22 00:25:57;;;;;;;3.30;2.47;;;;;;;;;;5072764;28;20048;-78
2021/12/22 00:28:23;;;;;;;2.50;2.30;;;;;;;;;;5080399;28;20145;-79
2021/12/22 00:30:50;;;;;;;3.15;2.95;;;;;;;;;;5073581;28;20129;-80
2021/12/22 00:33:17;;;;;;;4.55;2.33;;;;;;;;;;5085396;28;20032;-80
2021/12/22 00:35:45;;;;;;;4.32;2.63;;;;;;;;;;5076853;28;20028;-80
2021/12/22 00:38:16;;;;;;;4.43;1.67;;;-6.70;99.90;;;;;;5077505;28;20060;-78
2021/12/22 00:40:43;;;;;;;3.75;2.30;;;-6.00;99.90;;;;;;5078332;28;20395;-79
2021/12/22 00:43:10;;;;;;;2.83;2.42;;;;;;;;;;5081169;28;20052;-78
2021/12/22 00:45:36;;;;;;;3.35;3.00;;;;;;;;;;5077759;28;20074;-78
2021/12/22 00:48:06;;;;;;;3.22;1.90;;;;;;;;;;5076000;28;20028;-78
2021/12/22 00:50:33;;;;;;;4.80;3.38;;;;;;;;;;5080978;28;20043;-78
2021/12/22 00:53:00;;;;;;;5.45;2.92;;;;;;;;;;5081268;28;20031;-79
2021/12/22 00:55:26;;;;;;;2.85;1.90;;;;;;;;;;5075741;28;20039;-78
2021/12/22 00:57:52;;;;;;;2.42;1.63;;;;;;;;;;5080810;28;20499;-80
2021/12/22 01:00:20;;;;;;;3.88;2.05;;;-6.90;99.90;;;;;;5057978;28;20024;-79
2021/12/22 01:02:46;;;;;;;7.05;3.53;;;;;;;;;;5077730;28;20040;-78
2021/12/22 01:05:14;;;;;;;4.20;3.00;;;;;;;;;;5076754;28;20024;-82
2021/12/22 01:07:41;;;;;;;4.53;3.40;;;;;;;;;;5085249;28;20043;-79
2021/12/22 01:10:08;;;;;;;3.15;2.00;;;;;;;;;;5083541;28;20023;-80
2021/12/22 01:12:34;;;;;;;2.13;1.58;;;;;;;;;;5080814;28;20479;-78
2021/12/22 01:15:00;;;;;;;7.00;3.85;;;;;;;;;;5077390;28;20547;-79
2021/12/22 01:17:33;;;;;;;3.85;2.53;;;;;;;;;;5078825;28;20407;-79
2021/12/22 01:20:06;;;;;;;2.45;2.25;;;;;;;;;;5082737;28;20159;-79
2021/12/22 01:22:47;;;;;;;;;;;-6.60;99.90;;;;;;5085989;28;20036;-80
2021/12/22 01:25:15;;;;;;;2.97;2.05;;;;;;;;;;5065205;28;20329;-82
2021/12/22 01:27:43;;;;;;;2.17;2.00;;;;;;;;;;5078930;28;20136;-80
2021/12/22 01:30:13;;;;;;;2.67;2.47;;;;;;;;;;5080561;28;20028;-79
2021/12/22 01:32:42;;;;;;;3.17;2.25;;;;;;;;;;5086545;28;21566;-81
2021/12/22 01:35:10;;;;;;;4.72;3.47;;;;;;;;;;5076895;28;20027;-78
2021/12/22 01:37:35;;;;;;;7.03;3.97;;;;;;;;;;5083693;28;20021;-79
2021/12/22 01:40:02;;;;;;;6.30;3.55;;;;;;;;;;5081689;28;20036;-79
2021/12/22 01:42:28;;;;;;;4.00;3.50;;;;;;;;;;5077197;28;20105;-79
2021/12/22 01:45:13;;;;;;;5.05;2.50;;;;;;;;;;5082117;28;20078;-81
2021/12/22 01:50:46;;;;;;;3.17;2.92;;;-5.90;99.90;;;;;;5085211;28;20100;-79
2021/12/22 01:53:21;;;;;;;2.70;2.53;;;;;;;;;;5078427;28;20031;-82
2021/12/22 01:56:07;;;;;;;2.65;1.55;;;;;;;;;;5078286;28;20064;-79
2021/12/22 01:58:35;;;;;;;2.42;2.22;;;;;;;;;;5087325;28;20110;-79
2021/12/22 02:01:01;;;;;;;2.20;2.00;;;;;;;;;;5079584;28;20024;-79
2021/12/22 02:03:27;;;;;;;3.13;2.88;;;;;;;;;;5084451;28;20029;-80
2021/12/22 02:05:53;;;;;;;4.20;3.78;;;;;;;;;;5081433;28;20029;-81
2021/12/22 02:08:19;;;;;;;2.58;2.38;;;;;;;;;;5081390;28;20040;-79
2021/12/22 02:10:47;;;;;;;4.93;2.50;;;;;;;;;;5078429;28;20125;-78
2021/12/22 02:13:17;;;;;;;1.40;1.30;;;;;;;;;;5080695;28;20027;-80
2021/12/22 02:15:44;;;;;;;3.55;2.50;;;;;;;;;;5075664;28;20035;-79
2021/12/22 02:18:16;;;;;;;7.57;2.95;;;;;;;;;;5076554;28;20025;-79
2021/12/22 02:20:42;;;;;;;4.70;4.18;;;;;;;;;;5080172;28;20120;-78
2021/12/22 02:23:08;;;;;;;3.80;3.42;;;;;;;;;;5078537;28;20066;-80
2021/12/22 02:25:41;;;;;;;4.80;1.70;;;;;;;;;;5076550;28;20211;-79
2021/12/22 02:28:15;;;;;;;4.15;2.55;;;;;;;;;;5082524;28;20376;-81
2021/12/22 02:30:41;;;;;;;2.08;1.88;;;;;;;;;;5075785;28;20484;-79
2021/12/22 02:35:54;;;;;;;7.00;3.22;;;;;;;;;;5083664;28;20028;-79
2021/12/22 02:38:20;;;;;;;4.38;1.95;;;;;;;;;;5080581;28;20032;-80
2021/12/22 02:40:48;;;;;;;3.55;2.13;;;;;;;;;;5082241;28;20084;-81
2021/12/22 02:43:20;;;;;;;6.55;2.55;;;;;;;;;;5080802;28;20416;-80
2021/12/22 02:45:46;;;;;;;3.42;2.58;;;;;;;;;;5079252;28;20032;-80
2021/12/22 02:48:12;;;;;;;2.30;2.10;;;;;;;;;;5071139;28;20492;-82
2021/12/22 02:50:40;;;;;;;2.90;2.55;;;;;;;;;;5079781;28;20039;-79
2021/12/22 02:53:10;;;;;;;3.63;2.75;;;;;;;;;;5069351;28;20099;-80
2021/12/22 02:56:17;;;;;;;2.42;2.13;;;;;;;;;;5077012;28;20028;-81
2021/12/22 02:58:47;;;;;;;5.30;2.70;;;;;;;;;;5074334;28;20063;-81
2021/12/22 03:03:59;;;;;;;4.10;1.52;;;;;;;;;;5071246;28;20077;-79
2021/12/22 03:06:37;;;;;;;3.70;2.40;;;-6.80;99.90;;;;;;5083461;28;20024;-80
2021/12/22 03:09:21;;;;;;;6.63;2.67;;;-6.50;99.90;;;;;;5081928;28;20028;-79
2021/12/22 03:11:47;;;;;;;3.13;2.20;;;;;;;;;;5076601;28;20024;-79
2021/12/22 03:14:14;;;;;;;1.08;1.08;;;-7.00;99.90;;;;;;5077565;28;23119;-80
2021/12/22 03:16:44;;;;;;;2.22;2.05;;;;;;;;;;5079571;28;20024;-80
2021/12/22 03:19:13;;;;;;;2.28;2.10;;;;;;;;;;5074108;28;20028;-81
2021/12/22 03:21:41;;;;;;;2.92;2.63;;;;;;;;;;5081042;28;20111;-79
2021/12/22 03:24:08;;;;;;;3.28;2.13;;;;;;;;;;5090924;28;20453;-80
2021/12/22 03:26:34;;;;;;;1.73;1.63;;;;;;;;;;5075429;28;20436;-79
2021/12/22 03:29:00;;;;;;;2.72;1.75;;;;;;;;;;5076392;28;20135;-79
2021/12/22 03:31:26;;;;;;;10.05;2.40;;;;;;;;;;5075727;28;20433;-80
2021/12/22 03:33:52;;;;;;;3.28;1.52;;;;;;;;;;5074815;28;20036;-79
2021/12/22 03:36:18;;;;;;;3.13;2.50;;;;;;;;;;5082873;28;20032;-80
2021/12/22 03:38:46;;;;;;;3.58;1.63;;;;;;;;;;5076777;28;20024;-78
2021/12/22 03:41:12;;;;;;;4.40;2.85;;;;;;;;;;5077622;28;20495;-79
2021/12/22 03:43:38;;;;;;;2.90;1.52;;;;;;;;;;5084736;28;20032;-80
2021/12/22 03:46:04;;;;;;;5.10;2.20;;;-6.90;99.90;;;;;;5082593;28;20024;-80
2021/12/22 03:48:30;;;;;;;6.05;3.10;;;;;;;;;;5084306;28;20141;-80
2021/12/22 03:50:56;;;;;;;9.68;3.45;;;;;;;;;;5080587;28;20153;-79
2021/12/22 03:53:22;;;;;;;2.55;2.17;;;;;;;;;;5080793;28;20101;-80
2021/12/22 03:55:48;;;;;;;5.28;2.22;;;;;;;;;;5073407;28;20021;-80
2021/12/22 03:58:14;;;;;;;6.57;5.05;;;;;;;;;;5078316;28;20078;-79
2021/12/22 04:00:41;;;;;;;21.63;2.58;;;;;;;;;;5078939;28;20119;-80
2021/12/22 04:03:15;;;;;;;1.90;1.80;;;;;;;;;;5082874;28;20032;-78
2021/12/22 04:05:41;;;;;;;4.70;2.42;;;;;;;;;;5084543;28;20081;-78
2021/12/22 04:08:07;;;;;;;3.78;1.95;;;;;;;;;;5083041;28;20023;-78
2021/12/22 04:10:33;;;;;;;7.47;2.85;;;;;;;;;;5079987;28;20024;-80
2021/12/22 04:12:59;;;;;;;4.10;2.40;;;;;;;;;;5081908;28;20024;-78
2021/12/22 04:15:26;;;;;;;2.22;1.75;;;;;;;;;;5079898;28;20032;-79
2021/12/22 04:17:52;;;;;;;1.73;1.52;;;;;;;;;;5088682;28;20194;-78
2021/12/22 04:20:18;;;;;;;1.98;1.73;;;;;;;;;;5085698;28;20066;-78
2021/12/22 04:22:45;;;;;;;3.50;2.47;;;;;;;;;;5078470;28;20568;-77
2021/12/22 04:25:19;;;;;;;4.75;3.03;;;;;;;;;;5080970;28;20134;-78
2021/12/22 04:27:45;;;;;;;2.00;1.80;;;;;;;;;;5082550;28;20185;-79
2021/12/22 04:30:11;;;;;;;2.88;2.55;;;;;;;;;;5085603;28;20032;-80
2021/12/22 04:32:37;;;;;;;0.82;0.82;;;;;;;;;;5080098;28;20379;-79
2021/12/22 04:35:03;;;;;;;2.10;2.00;;;;;;;;;;5086035;28;20029;-79
2021/12/22 04:37:29;;;;;;;2.50;2.05;;;;;;;;;;5086716;28;20039;-79
2021/12/22 04:39:55;;;;;;;1.95;1.85;;;;;;;;;;5080905;28;20020;-78
2021/12/22 04:42:21;;;;;;;3.13;2.20;;;;;;;;;;5089106;28;20028;-78
2021/12/22 04:44:52;;;;;;;4.05;2.08;;;;;;;;;;5088565;28;20039;-78
2021/12/22 04:47:18;;;;;;;1.95;1.75;;;;;;;;;;5080864;28;20111;-78
2021/12/22 04:49:44;;;;;;;1.60;1.38;;;;;;;;;;5087997;28;20552;-77
2021/12/22 04:52:15;;;;;;;3.28;2.78;;;;;;;;;;5072796;28;20035;-78
2021/12/22 04:54:51;;;;;;;1.08;1.02;;;;;;;;;;5081134;28;20028;-77
2021/12/22 04:57:17;;;;;;;3.95;2.00;;;;;;;;;;5079025;28;20055;-79
2021/12/22 04:59:43;;;;;;;5.53;3.92;;;;;;;;;;5081231;28;20165;-79
2021/12/22 05:02:09;;;;;;;2.97;1.92;;;;;;;;;;5077389;28;20131;-79
2021/12/22 05:04:36;;;;;;;2.53;2.25;;;;;;;;;;5091010;28;20036;-78
2021/12/22 05:07:02;;;;;;;2.38;2.17;;;;;;;;;;5081830;28;20029;-79
2021/12/22 05:09:28;;;;;;;4.75;2.65;;;;;;;;;;5076794;28;20035;-80
2021/12/22 05:11:54;;;;;;;2.72;2.33;;;;;;;;;;5074116;28;20032;-80
2021/12/22 05:14:20;;;;;;;3.75;2.63;;;;;;;;;;5075480;28;20029;-79
2021/12/22 05:16:48;;;;;;;2.00;1.90;;;;;;;;;;5079686;28;20028;-79
2021/12/22 05:19:15;;;;;;;2.38;2.10;;;;;;;;;;5074590;28;20038;-81
2021/12/22 05:21:42;;;;;;;3.97;2.33;;;;;;;;;;5079807;28;20607;-80
2021/12/22 05:24:08;;;;;;;5.13;2.45;;;;;;;;;;5076337;28;20040;-80
2021/12/22 05:26:34;;;;;;;2.70;2.00;;;;;;;;;;5081641;28;20028;-79
2021/12/22 05:29:00;;;;;;;5.00;2.60;;;;;;;;;;5078762;28;20033;-79
2021/12/22 05:31:27;;;;;;;3.30;1.85;;;;;;;;;;5087366;28;20675;-80
2021/12/22 05:33:53;;;;;;;1.13;1.02;;;;;;;;;;5083575;28;20033;-79
2021/12/22 05:36:19;;;;;;;1.52;1.48;;;;;;;;;;5086272;28;20371;-78
2021/12/22 05:38:46;;;;;;;7.18;2.05;;;;;;;;;;5078203;28;20020;-80
2021/12/22 05:41:12;;;;;;;1.83;1.73;;;;;;;;;;5088623;28;20043;-80
2021/12/22 05:43:38;;;;;;;2.22;1.98;;;;;;;;;;5096315;28;20032;-79
2021/12/22 05:46:04;;;;;;;3.50;2.17;;;;;;;;;;5094370;28;20361;-80
2021/12/22 05:48:30;;;;;;;3.15;2.45;;;;;;;;;;5090879;28;20024;-81
2021/12/22 05:50:58;;;;;;;2.95;1.83;;;;;;;;;;5077578;28;20548;-79
2021/12/22 05:53:25;;;;;;;2.38;2.03;;;;;;;;;;5083394;28;20036;-80
2021/12/22 05:55:51;;;;;;;2.22;2.10;;;;;;;;;;5074892;28;20034;-80
2021/12/22 05:58:18;;;;;;;2.90;2.70;;;;;;;;;;5079803;28;20598;-80
2021/12/22 06:00:44;;;;;;;5.72;3.78;;;;;;;;;;5078527;28;20050;-78
2021/12/22 06:03:10;;;;;;;2.85;2.65;;;;;;;;;;5073777;28;20020;-80
2021/12/22 06:05:37;;;;;;;2.45;1.48;;;;;;;;;;5087084;28;20031;-79
2021/12/22 06:08:03;;;;;;;1.60;1.27;;;;;;;;;;5090318;28;20024;-79
2021/12/22 06:10:29;;;;;;;9.05;5.95;;;;;;;;;;5080975;28;20032;-78
2021/12/22 06:12:55;;;;;;;7.53;5.75;;;;;;;;;;5078128;28;20024;-79
2021/12/22 06:15:21;;;;;;;5.10;4.07;;;;;;;;;;5079680;28;20128;-80
2021/12/22 06:17:53;;;;;;;2.20;1.73;;;;;;;;;;5074118;28;20025;-80
2021/12/22 06:20:19;;;;;;;3.90;3.57;;;;;;;;;;5083115;28;20385;-80
2021/12/22 06:22:45;;;;;;;5.05;1.95;;;;;;;;;;5078735;28;20283;-79
2021/12/22 06:25:11;;;;;;;4.63;3.78;;;;;;;;;;5077943;28;20044;-81
2021/12/22 06:27:37;;;;;;;3.13;2.78;;;;;;;;;;5076252;28;20024;-79
2021/12/22 06:30:04;;;;;;;8.55;4.00;;;;;;;;;;5085942;28;20035;-80
2021/12/22 06:32:30;;;;;;;3.10;2.30;;;;;;;;;;5085704;28;20107;-80
2021/12/22 06:34:56;;;;;;;4.78;1.58;;;;;;;;;;5091606;28;20039;-79
2021/12/22 06:37:22;;;;;;;3.05;1.73;;;;;;;;;;5075962;28;20024;-81
2021/12/22 06:39:48;;;;;;;2.60;2.40;;;;;;;;;;5088554;28;20024;-80
2021/12/22 06:42:14;;;;;;;3.60;2.38;;;;;;;;;;5083588;28;20025;-80
2021/12/22 06:44:40;;;;;;;4.32;2.88;;;;;;;;;;5081771;28;20602;-79
2021/12/22 06:47:07;;;;;;;2.08;1.88;;;;;;;;;;5084881;28;20055;-79
2021/12/22 06:49:33;;;;;;;5.45;3.65;;;;;;;;;;5086578;28;20031;-80
2021/12/22 06:51:59;;;;;;;7.15;3.67;;;;;;;;;;5083582;28;20666;-81
2021/12/22 06:54:25;;;;;;;10.20;6.22;;;;;;;;;;5085655;28;20035;-80
2021/12/22 06:56:51;;;;;;;3.00;2.75;;;;;;;;;;5077449;28;20031;-80
2021/12/22 06:59:17;;;;;;;7.70;3.65;;;;;;;;;;5081781;28;20477;-79
2021/12/22 07:01:43;;;;;;;7.03;4.28;;;;;;;;;;5096966;28;20024;-80
2021/12/22 07:04:09;;;;;;;13.30;5.28;;;;;;;;;;5104942;28;20047;-80
2021/12/22 07:06:35;;;;;;;11.57;4.95;;;;;;;;;;5089841;28;20028;-80
2021/12/22 07:09:01;;;;;;;9.48;6.47;;;;;;;;;;5092491;28;20024;-80
2021/12/22 07:11:27;;;;;;;11.82;8.02;;;;;;;;;;5077275;28;20051;-81
2021/12/22 07:13:53;;;;;;;13.52;8.05;;;;;;;;;;5084638;28;20020;-81
2021/12/22 07:16:19;;;;;;;13.65;9.85;;;;;;;;;;5081094;28;20029;-81
2021/12/22 07:18:45;;;;;;;31.50;7.25;;;;;;;;;;5088365;28;20043;-80
2021/12/22 07:21:11;;;;;;;3.60;3.10;;;;;;;;;;5078258;28;20020;-82
2021/12/22 07:23:37;;;;;;;7.07;4.63;;;;;;;;;;5079266;28;20052;-80
2021/12/22 07:26:03;;;;;;;9.85;7.50;;;;;;;;;;5086745;28;20039;-79
2021/12/22 07:28:29;;;;;;;17.50;7.95;;;;;;;;;;5087043;28;20032;-79
2021/12/22 07:30:55;;;;;;;13.35;7.28;;;;;;;;;;5083785;28;20388;-80
2021/12/22 07:33:21;;;;;;;6.00;4.57;;;;;;;;;;5083181;28;20028;-80
2021/12/22 07:35:53;;;;;;;12.07;5.20;;;;;;;;;;5087743;28;20031;-80
2021/12/22 07:38:27;;;;;;;5.97;3.33;;;;;;;;;;5090940;28;20462;-80
2021/12/22 07:40:55;;;;;;;5.97;4.03;;;-7.10;99.90;;;;;;5093090;28;20312;-80
2021/12/22 07:43:21;;;;;;;4.13;3.08;;;;;;;;;;5085685;28;20036;-79
2021/12/22 07:45:47;;;;;;;5.72;4.65;;;;;;;;;;5084264;28;20021;-78
2021/12/22 07:48:13;;;;;;;4.32;3.92;;;;;;;;;;5078383;28;20041;-80
2021/12/22 07:50:39;;;;;;;4.97;4.43;;;;;;;;;;5084687;28;20543;-79
2021/12/22 07:53:05;;;;;;;16.00;6.53;;;;;;;;;;5094821;28;20036;-81
2021/12/22 07:55:31;;;;;;;5.32;4.15;;;;;;;;;;5086639;28;20114;-79
2021/12/22 07:57:57;;;;;;;8.73;3.65;;;;;;;;;;5091103;28;20165;-80
2021/12/22 08:00:23;;;;;;;3.08;2.10;;;;;;;;;;5088345;28;20068;-80
2021/12/22 08:02:49;;;;;;;2.65;2.40;;;;;;;;;;5089451;28;20419;-80
2021/12/22 08:05:15;;;;;;;4.47;3.05;;;;;;;;;;5076655;28;20037;-80
2021/12/22 08:07:41;;;;;;;5.93;3.50;;;;;;;;;;5091025;28;20020;-82
2021/12/22 08:10:08;;;;;;;3.83;3.33;;;;;;;;;;5092015;28;20032;-81
2021/12/22 08:12:34;;;;;;;2.92;1.63;;;-6.90;99.90;;;;;;5084038;28;20043;-81
2021/12/22 08:15:01;;;;;;;5.53;2.15;;;;;;;;;;5086526;28;20039;-81
2021/12/22 08:17:27;;;;;;;3.42;2.83;;;;;;;;;;5082712;28;20021;-81
2021/12/22 08:19:54;;;;;;;14.38;4.90;;;;;;;;;;5090527;28;20047;-79
2021/12/22 08:22:20;;;;;;;7.70;3.53;;;;;;;;;;5089571;28;20028;-79
2021/12/22 08:24:46;;;;;;;2.47;2.17;;;;;;;;;;5078773;28;20032;-81
2021/12/22 08:27:12;;;;;;;2.58;2.38;;;;;;;;;;5091588;28;20388;-80
2021/12/22 08:29:42;;;;;;;2.95;2.67;;;;;;;;;;5095345;28;20043;-81
2021/12/22 08:32:09;;;;;;;3.53;2.42;;;;;;;;;;5096236;28;20032;-81
2021/12/22 08:34:38;;;;;;;2.50;2.30;;;;;;;;;;5083917;28;20557;-81
2021/12/22 08:39:50;;;;;;;3.47;2.53;;;;;;;;;;5084089;28;20061;-80
2021/12/22 08:42:16;;;;;;;9.68;3.22;;;;;;;;;;5085660;28;20028;-81
2021/12/22 08:44:42;;;;;;;3.80;2.70;;;;;;;;;;5090732;28;20051;-81
2021/12/22 08:47:08;;;;;;;6.53;4.35;;;;;;;;;;5087441;28;20017;-81
2021/12/22 08:49:34;;;;;;;6.28;3.17;;;;;;;;;;5091271;28;20024;-80
2021/12/22 08:52:00;;;;;;;4.60;3.03;;;;;;;;;;5080613;28;20028;-80
2021/12/22 08:54:27;;;;;;;7.03;4.05;;;;;;;;;;5089031;28;20020;-80
2021/12/22 08:56:55;;;;;;;4.15;3.70;;;;;;;;;;5081971;28;20037;-81
2021/12/22 08:59:21;;;;;;;5.13;3.90;;;;;;;;;;5085454;28;20035;-82
2021/12/22 09:01:47;;;;;;;7.72;4.82;;;;;;;;;;5087692;28;20069;-80
2021/12/22 09:04:13;;;;;;;6.38;4.40;;;;;;;;;;5080816;28;20262;-81
2021/12/22 09:06:39;;;;;;;14.45;6.68;;;;;;;;;;5086248;28;20272;-82
2021/12/22 09:09:06;;;;;;;12.50;6.47;;;;;;;;;;5094486;28;20038;-81
2021/12/22 09:11:32;;;;;;;12.48;7.15;;;;;;;;;;5091647;28;20428;-79
2021/12/22 09:13:58;;;;;;;6.18;4.25;;;;;;;;;;5087611;28;20035;-82
2021/12/22 09:16:24;;;;;;;7.55;5.00;;;;;;;;;;5092237;28;20240;-80
2021/12/22 09:18:50;;;;;;;10.80;7.20;;;;;;;;;;5089321;28;20408;-80
2021/12/22 09:21:16;;;;;;;5.68;3.72;;;;;;;;;;5086408;28;20021;-81
2021/12/22 09:23:42;;;;;;;6.72;4.07;;;;;;;;;;5090595;28;20388;-83
2021/12/22 09:26:08;;;;;;;8.88;5.38;;;;;;;;;;5084405;28;20380;-82
2021/12/22 09:28:35;;;;;;;8.38;5.65;;;;;;;;;;5085293;28;20024;-81
2021/12/22 09:31:01;;;;;;;11.25;6.30;;;;;;;;;;5083130;28;20537;-81
2021/12/22 09:33:27;;;;;;;10.48;2.80;;;;;;;;;;5081902;28;20032;-81
2021/12/22 09:35:53;;;;;;;7.25;3.60;;;;;;;;;;5088325;28;20025;-81
2021/12/22 09:38:20;;;;;;;6.90;4.97;;;;;;;;;;5090632;28;20028;-81
2021/12/22 09:40:46;;;;;;;3.25;2.08;;;;;;;;;;5085052;28;20032;-82
2021/12/22 09:43:13;;;;;;;8.65;4.85;;;;;;;;;;5081393;28;20032;-82
2021/12/22 09:45:44;;;;;;;10.68;4.18;;;;;;;;;;5091932;28;20036;-81
2021/12/22 09:50:51;;;;;;;5.05;3.97;;;;;;;;;;5081930;28;20032;-82
2021/12/22 09:53:25;;;;;;;6.82;4.60;;;-3.20;99.90;;;;;;5078894;28;20115;-81
2021/12/22 09:55:52;;;;;;;7.05;4.75;;;-3.20;99.90;;;;;;5089458;28;20052;-82
2021/12/22 09:58:18;;;;;;;9.25;4.63;;;;;;;;;;5080578;28;20388;-81
2021/12/22 10:00:45;;;;;;;10.27;4.88;;;;;;;;;;5086435;28;20032;-81
2021/12/22 10:03:12;;;;;;;7.55;3.38;;;;;;;;;;5088154;28;20060;-79
2021/12/22 10:05:41;;;;;;;16.00;5.78;;;-2.80;99.90;;;;;;5082283;28;20088;-81
2021/12/22 10:08:09;;;;;;;6.05;4.18;;;;;;;;;;5085334;28;20048;-81
2021/12/22 10:10:36;;;;;;;6.50;4.15;;;;;;;;;;5092080;28;20430;-82
2021/12/22 10:13:14;;;;;;;6.95;3.22;;;;;;;;;;5080841;28;20037;-81
2021/12/22 10:15:40;;;;;;;14.23;6.78;;;;;;;;;;5084543;28;20024;-81
2021/12/22 10:18:10;;;;;;;8.02;4.57;;;;;;;;;;5090356;28;20028;-81
2021/12/22 10:20:36;;;;;;;8.60;3.88;;;;;;;;;;5080534;28;20043;-81
2021/12/22 10:23:02;;;;;;;7.57;4.15;;;;;;;;;;5083748;28;20032;-81
2021/12/22 10:25:31;;;;;;;9.05;4.15;;;;;;;;;;5081527;28;20020;-78
2021/12/22 10:28:01;;;;;;;12.88;6.05;;;;;;;;;;5083857;28;20107;-80
2021/12/22 10:30:38;;;;;;;7.32;4.22;;;;;;;;;;5079221;28;20032;-82
2021/12/22 10:33:12;;;;;;;9.05;5.97;;;;;;;;;;5085384;28;20040;-79
2021/12/22 10:35:39;;;;;;;7.78;4.60;;;;;;;;;;5084998;28;20033;-80
2021/12/22 10:38:05;;;;;;;11.68;4.55;;;;;;;;;;5091541;28;20031;-82
2021/12/22 10:40:33;;;;;;;7.72;4.40;;;;;;;;;;5083351;28;20055;-81
2021/12/22 10:43:00;;;;;;;10.15;4.93;;;;;;;;;;5078782;28;20032;-81
2021/12/22 10:45:27;;;;;;;12.75;4.93;;;;;;;;;;5094175;28;20036;-80
2021/12/22 10:50:43;;;;;;;9.00;5.00;;;;;;;;;;5093522;28;20043;-80
2021/12/22 10:53:12;;;;;;;13.57;4.25;;;;;;;;;;5083100;28;20564;-81
2021/12/22 10:55:47;;;;;;;9.93;4.88;;;-1.00;99.90;;;;;;5088421;28;20027;-81
2021/12/22 10:58:16;;;;;;;8.95;4.80;;;;;;;;;;5089003;28;20035;-82
2021/12/22 11:00:42;;;;;;;15.63;6.68;;;;;;;;;;5087403;28;20563;-81
2021/12/22 11:03:09;;;;;;;9.15;4.35;;;;;;;;;;5080492;28;20391;-81
2021/12/22 11:05:48;;;;;;;18.52;6.05;;;;;;;;;;5088779;28;20034;-80
2021/12/22 11:08:20;;;;;;;15.80;5.35;;;;;;;;;;5086712;28;20526;-81
2021/12/22 11:10:46;;;;;;;7.93;4.28;;;;;;;;;;5080021;28;20024;-80
2021/12/22 11:13:17;;;;;;;18.50;5.35;;;;;;;;;;5075679;28;20024;-80
2021/12/22 11:15:44;;;;;;;11.82;5.28;;;;;;;;;;5077602;28;20114;-84
2021/12/22 11:18:10;;;;;;;10.20;6.38;;;;;;;;;;5067053;28;21208;-81
2021/12/22 11:20:36;;;;;;;6.70;3.78;;;;;;;;;;5059445;28;20073;-81
2021/12/22 11:23:11;;;;;;;9.35;4.30;;;0.10;99.90;;;;;;5096463;28;20505;-81
2021/12/22 11:25:39;;;;;;;11.15;5.97;;;;;;;;;;5085148;28;20029;-80
2021/12/22 11:28:05;;;;;;;9.18;4.97;;;0.50;99.90;;;;;;5086404;28;20330;-83
2021/12/22 11:30:31;;;;;;;10.23;4.63;;;;;;;;;;5085745;28;20036;-82
2021/12/22 11:32:57;;;;;;;8.40;5.15;;;;;;;;;;5087073;28;20059;-81
2021/12/22 11:35:23;;;;;;;10.10;4.28;;;;;;;;;;5092474;28;20699;-80
2021/12/22 11:37:50;;;;;;;7.13;3.83;;;;;;;;;;5092005;28;20024;-80
2021/12/22 11:40:22;;;;;;;10.55;4.63;;;;;;;;;;5095020;28;20140;-81
2021/12/22 11:42:48;;;;;;;8.07;3.58;;;;;;;;;;5084470;28;20028;-81
2021/12/22 11:45:15;;;;;;;10.98;4.82;;;;;;;;;;5093625;28;20048;-81
2021/12/22 11:47:46;;;;;;;5.53;2.88;;;;;;;;;;5084923;28;20028;-82
2021/12/22 11:50:20;;;;;;;7.63;4.47;;;0.80;99.90;;;;;;5089943;28;20443;-81
2021/12/22 11:53:06;;;;;;;10.45;4.63;;;;;;;;;;5086408;28;20012;-80
2021/12/22 11:55:39;;;;;;;9.15;4.28;;;;;;;;;;5084690;28;20029;-81
2021/12/22 11:58:22;;;;;;;9.07;5.45;;;1.00;99.90;;;;;;5087458;28;20032;-81
2021/12/22 12:00:54;;;;;;;;;;;0.80;99.90;;;;;;5092078;28;20024;-81
2021/12/22 12:03:31;;;;;;;7.03;4.47;;;;;;;;;;5090589;28;19912;-81
2021/12/22 12:06:02;;;;;;;7.03;3.25;;;;;;;;;;5095727;28;20052;-80
2021/12/22 12:08:33;;;;;;;13.30;4.85;;;;;;;;;;5091807;28;20012;-81
2021/12/22 12:11:00;;;;;;;10.38;5.00;;;;;;;;;;5090063;28;20052;-81
2021/12/22 12:21:52;;;;;;;18.85;6.55;;;;;;;;;;5083770;28;20047;-81
2021/12/22 12:24:30;;;;;;;8.60;4.00;;;0.90;99.90;;;;;;5092009;28;20040;-82
2021/12/22 12:26:57;;;;;;;18.10;6.82;;;;;;;;;;5088154;28;20060;-82
2021/12/22 12:29:42;;;;;;;6.18;3.63;;;;;;;;;;5092207;28;20055;-81
2021/12/22 12:32:08;;;;;;;10.20;3.90;;;;;;;;;;5275205;22;20037;-85
2021/12/22 12:34:38;;;;;;;5.72;3.47;;;;;;;;;;5067508;28;20032;-86
2021/12/22 12:37:06;;;;;;;11.10;4.38;;;;;;;;;;5084720;28;20484;-87
2021/12/22 12:39:51;;;;;;;11.90;4.70;;;;;;;;;;5080831;28;20035;-85
2021/12/22 12:42:17;;;;;;;7.13;3.47;;;;;;;;;;5070089;28;20112;-85
2021/12/22 12:44:43;;;;;;;6.68;3.05;;;;;;;;;;5074000;28;20057;-85
2021/12/22 12:47:21;;;;;;;7.70;4.50;;;;;;;;;;5078353;28;20035;-85
2021/12/22 12:49:47;;;;;;;11.77;4.72;;;;;;;;;;5069479;28;20020;-86
2021/12/22 12:52:20;;;;;;;9.82;4.10;;;;;;;;;;5078494;28;20041;-86
2021/12/22 12:54:46;;;;;;;11.73;4.75;;;;;;;;;;5078949;28;20106;-86
2021/12/22 12:57:12;;;;;;;9.30;4.72;;;;;;;;;;5073178;28;20024;-85
2021/12/22 12:59:38;;;;;;;7.85;4.25;;;;;;;;;;5072173;28;20021;-85
2021/12/22 13:02:05;;;;;;;6.53;3.40;;;;;;;;;;5074432;28;20029;-85
2021/12/22 13:04:31;;;;;;;8.10;4.38;;;;;;;;;;5072629;28;20068;-85
2021/12/22 13:07:00;;;;;;;9.15;4.68;;;;;;;;;;5067802;28;20074;-86
2021/12/22 13:09:26;;;;;;;8.07;3.97;;;;;;;;;;5076240;28;20033;-86
2021/12/22 13:11:58;;;;;;;6.15;3.47;;;1.10;99.90;;;;;;5070369;28;20031;-86
2021/12/22 13:17:16;;;;;;;4.50;3.08;;;;;;;;;;5072040;28;20044;-85
2021/12/22 13:19:43;;;;;;;7.40;3.72;;;1.10;99.90;;;;;;5071804;28;20024;-86
2021/12/22 13:25:34;;;;;;;10.93;4.57;;;2.00;99.90;;;;;;5072046;28;20123;-85
2021/12/22 13:28:08;;;;;;;10.27;4.18;;;1.30;99.90;;;;;;5075907;28;20438;-86
2021/12/22 13:30:37;;;;;;;9.57;3.88;;;;;;;;;;5072194;28;20025;-85
2021/12/22 13:33:06;;;;;;;7.80;3.35;;;;;;;;;;5070201;28;20048;-86
2021/12/22 13:35:36;;;;;;;10.23;4.55;;;;;;;;;;5071720;28;20036;-85
2021/12/22 13:38:03;;;;;;;6.40;3.13;;;;;;;;;;5078644;28;20048;-86
2021/12/22 13:40:40;;;;;;;9.35;4.60;;;;;;;;;;5078282;28;20029;-85
2021/12/22 13:43:15;;;;;;;7.15;3.05;;;0.90;99.90;;;;;;5072707;28;20115;-84
2021/12/22 13:45:41;;;;;;;9.63;4.30;;;;;;;;;;5076622;28;20060;-85
2021/12/22 13:48:17;;;;;;;7.90;4.43;;;0.90;99.90;;;;;;5075865;28;20475;-85
2021/12/22 13:50:44;;;;;;;14.70;4.95;;;1.00;99.90;;;;;;5078130;28;20020;-85
2021/12/22 13:53:10;;;;;;;11.20;4.95;;;;;;;;;;5070727;28;20039;-84
2021/12/22 13:55:36;;;;;;;12.70;5.35;;;;;;;;;;5075358;28;20070;-85
2021/12/22 13:58:22;;;;;;;11.48;5.45;;;;;;;;;;5076270;28;20407;-85
2021/12/22 14:00:48;;;;;;;10.88;5.10;;;;;;;;;;5068086;28;20601;-84
2021/12/22 14:03:17;;;;;;;8.02;4.78;;;;;;;;;;5069898;28;20063;-84
2021/12/22 14:05:43;;;;;;;8.25;5.10;;;;;;;;;;5074557;28;20021;-85
2021/12/22 14:08:27;;;;;;;10.80;4.97;;;;;;;;;;5076718;28;20046;-85
2021/12/22 14:10:53;;;;;;;11.43;4.55;;;;;;;;;;5067594;28;20020;-84
2021/12/22 14:13:37;;;;;;;10.50;6.05;;;;;;;;;;5065818;28;20029;-84
2021/12/22 14:16:03;;;;;;;7.63;3.88;;;;;;;;;;5066345;28;20035;-85
2021/12/22 14:18:35;;;;;;;12.63;5.97;;;;;;;;;;5070613;28;20029;-85
2021/12/22 14:21:02;;;;;;;11.50;5.63;;;;;;;;;;5071444;28;20040;-85
2021/12/22 14:23:28;;;;;;;11.52;4.85;;;;;;;;;;5070431;28;20031;-85
2021/12/22 14:26:07;;;;;;;7.55;4.10;;;-0.30;99.90;;;;;;5079515;28;20460;-85
2021/12/22 14:28:35;;;;;;;14.30;6.25;;;;;;;;;;5072752;28;20135;-85
2021/12/22 14:31:10;;;;;;;7.38;3.92;;;;;;;;;;5075263;28;20082;-85
2021/12/22 14:33:36;;;;;;;7.65;4.22;;;;;;;;;;5071915;28;20198;-86
2021/12/22 14:36:08;;;;;;;9.85;4.97;;;0.70;99.90;;;;;;5075159;28;20035;-87
2021/12/22 14:38:36;;;;;;;11.98;4.63;;;;;;;;;;5072296;28;20024;-86
2021/12/22 14:41:07;;;;;;;21.80;5.85;;;;;;;;;;5072546;28;20028;-85
2021/12/22 14:43:43;;;;;;;11.43;6.10;;;;;;;;;;5070879;28;20032;-87
2021/12/22 14:46:10;;;;;;;10.63;5.05;;;;;;;;;;5076584;28;20035;-87
2021/12/22 14:48:41;;;;;;;8.63;4.97;;;;;;;;;;5078678;28;20525;-86
2021/12/22 14:51:12;;;;;;;8.95;3.50;;;;;;;;;;5076584;28;20021;-87
2021/12/22 14:53:40;;;;;;;7.30;3.28;;;;;;;;;;5084017;28;20189;-86
2021/12/22 14:56:10;;;;;;;9.75;3.35;;;;;;;;;;5072709;28;20078;-86
2021/12/22 14:58:36;;;;;;;10.65;4.80;;;;;;;;;;5068168;28;20033;-87
2021/12/22 15:01:04;;;;;;;11.93;4.85;;;-0.30;99.90;;;;;;5075483;28;20023;-87
2021/12/22 15:03:30;;;;;;;8.98;4.10;;;;;;;;;;5074583;28;20066;-87
2021/12/22 15:05:58;;;;;;;13.95;5.43;;;;;;;;;;5068728;28;20032;-87
2021/12/22 15:08:25;;;;;;;8.20;4.55;;;;;;;;;;5065400;28;20283;-86